sensor_id;sensor_type;location;lat;lon;timestamp;P1;durP1;ratioP1;P2;durP2;ratioP2
37280;SDS011;23169;41.804;12.596;2023-03-01T00:01:17;10.27;;;5.07;;
37280;SDS011;23169;41.804;12.596;2023-03-01T00:03:48;10.60;;;5.45;;
37280;SDS011;23169;41.804;12.596;2023-03-01T00:06:16;11.63;;;5.20;;
37280;SDS011;23169;41.804;12.596;2023-03-01T00:08:45;12.18;;;5.60;;
37280;SDS011;23169;41.804;12.596;2023-03-01T00:11:23;7.85;;;4.80;;
37280;SDS011;23169;41.804;12.596;2023-03-01T00:13:55;11.05;;;5.80;;
37280;SDS011;23169;41.804;12.596;2023-03-01T00:16:25;13.68;;;6.82;;
37280;SDS011;23169;41.804;12.596;2023-03-01T00:18:57;11.90;;;5.70;;
37280;SDS011;23169;41.804;12.596;2023-03-01T00:21:26;12.32;;;6.00;;
37280;SDS011;23169;41.804;12.596;2023-03-01T00:23:57;8.15;;;5.05;;
37280;SDS011;23169;41.804;12.596;2023-03-01T00:28:52;4.30;;;2.88;;
37280;SDS011;23169;41.804;12.596;2023-03-01T00:31:25;4.55;;;2.47;;
37280;SDS011;23169;41.804;12.596;2023-03-01T00:33:55;5.28;;;2.25;;
37280;SDS011;23169;41.804;12.596;2023-03-01T00:36:28;3.08;;;2.35;;
37280;SDS011;23169;41.804;12.596;2023-03-01T00:38:59;2.78;;;2.05;;
37280;SDS011;23169;41.804;12.596;2023-03-01T00:41:27;2.70;;;1.75;;
37280;SDS011;23169;41.804;12.596;2023-03-01T00:43:55;3.15;;;1.98;;
37280;SDS011;23169;41.804;12.596;2023-03-01T00:46:23;4.38;;;1.77;;
37280;SDS011;23169;41.804;12.596;2023-03-01T00:48:53;8.18;;;1.90;;
37280;SDS011;23169;41.804;12.596;2023-03-01T00:53:49;2.47;;;1.50;;
37280;SDS011;23169;41.804;12.596;2023-03-01T00:56:22;1.70;;;1.58;;
37280;SDS011;23169;41.804;12.596;2023-03-01T00:58:49;2.15;;;1.20;;
37280;SDS011;23169;41.804;12.596;2023-03-01T01:01:19;3.33;;;1.60;;
37280;SDS011;23169;41.804;12.596;2023-03-01T01:03:58;3.65;;;1.70;;
37280;SDS011;23169;41.804;12.596;2023-03-01T01:06:36;3.67;;;1.27;;
37280;SDS011;23169;41.804;12.596;2023-03-01T01:09:06;1.80;;;1.35;;
37280;SDS011;23169;41.804;12.596;2023-03-01T01:11:36;1.38;;;1.20;;
37280;SDS011;23169;41.804;12.596;2023-03-01T01:14:04;5.45;;;2.10;;
37280;SDS011;23169;41.804;12.596;2023-03-01T01:16:33;3.42;;;1.50;;
37280;SDS011;23169;41.804;12.596;2023-03-01T01:19:02;2.20;;;1.27;;
37280;SDS011;23169;41.804;12.596;2023-03-01T01:21:31;1.95;;;1.67;;
37280;SDS011;23169;41.804;12.596;2023-03-01T01:24:00;3.35;;;1.35;;
37280;SDS011;23169;41.804;12.596;2023-03-01T01:26:32;1.42;;;1.33;;
37280;SDS011;23169;41.804;12.596;2023-03-01T01:29:02;2.53;;;1.23;;
37280;SDS011;23169;41.804;12.596;2023-03-01T01:31:33;2.75;;;1.33;;
37280;SDS011;23169;41.804;12.596;2023-03-01T01:34:06;2.20;;;1.48;;
37280;SDS011;23169;41.804;12.596;2023-03-01T01:36:36;3.95;;;1.40;;
37280;SDS011;23169;41.804;12.596;2023-03-01T01:39:05;1.88;;;1.17;;
37280;SDS011;23169;41.804;12.596;2023-03-01T01:41:33;1.40;;;1.25;;
37280;SDS011;23169;41.804;12.596;2023-03-01T01:49:45;1.45;;;1.25;;
37280;SDS011;23169;41.804;12.596;2023-03-01T01:55:02;1.13;;;1.00;;
37280;SDS011;23169;41.804;12.596;2023-03-01T01:57:36;1.88;;;1.20;;
37280;SDS011;23169;41.804;12.596;2023-03-01T02:00:21;3.92;;;2.10;;
37280;SDS011;23169;41.804;12.596;2023-03-01T02:02:52;2.88;;;2.42;;
37280;SDS011;23169;41.804;12.596;2023-03-01T02:07:56;4.60;;;2.38;;
37280;SDS011;23169;41.804;12.596;2023-03-01T02:10:26;5.70;;;2.50;;
37280;SDS011;23169;41.804;12.596;2023-03-01T02:12:56;3.72;;;1.75;;
37280;SDS011;23169;41.804;12.596;2023-03-01T02:15:25;2.67;;;1.80;;
37280;SDS011;23169;41.804;12.596;2023-03-01T02:17:54;3.63;;;1.83;;
37280;SDS011;23169;41.804;12.596;2023-03-01T02:23:01;2.78;;;1.73;;
37280;SDS011;23169;41.804;12.596;2023-03-01T02:25:52;4.85;;;1.67;;
37280;SDS011;23169;41.804;12.596;2023-03-01T02:30:57;2.55;;;1.60;;
37280;SDS011;23169;41.804;12.596;2023-03-01T02:33:44;3.97;;;1.75;;
37280;SDS011;23169;41.804;12.596;2023-03-01T02:36:17;1.88;;;1.70;;
37280;SDS011;23169;41.804;12.596;2023-03-01T02:38:49;1.80;;;1.40;;
37280;SDS011;23169;41.804;12.596;2023-03-01T02:41:20;1.45;;;1.15;;
37280;SDS011;23169;41.804;12.596;2023-03-01T02:43:51;4.28;;;1.63;;
37280;SDS011;23169;41.804;12.596;2023-03-01T02:46:21;2.08;;;1.55;;
37280;SDS011;23169;41.804;12.596;2023-03-01T02:48:54;3.33;;;1.58;;
37280;SDS011;23169;41.804;12.596;2023-03-01T02:56:57;2.53;;;1.80;;
37280;SDS011;23169;41.804;12.596;2023-03-01T02:59:27;3.40;;;1.67;;
37280;SDS011;23169;41.804;12.596;2023-03-01T03:02:00;1.50;;;1.40;;
37280;SDS011;23169;41.804;12.596;2023-03-01T03:04:30;2.30;;;1.92;;
37280;SDS011;23169;41.804;12.596;2023-03-01T03:07:00;2.45;;;1.65;;
37280;SDS011;23169;41.804;12.596;2023-03-01T03:09:28;3.05;;;2.17;;
37280;SDS011;23169;41.804;12.596;2023-03-01T03:12:00;3.78;;;2.17;;
37280;SDS011;23169;41.804;12.596;2023-03-01T03:14:30;4.20;;;2.05;;
37280;SDS011;23169;41.804;12.596;2023-03-01T03:17:02;2.42;;;2.20;;
37280;SDS011;23169;41.804;12.596;2023-03-01T03:19:35;2.92;;;2.22;;
37280;SDS011;23169;41.804;12.596;2023-03-01T03:22:03;3.40;;;2.13;;
37280;SDS011;23169;41.804;12.596;2023-03-01T03:24:33;3.65;;;2.00;;
37280;SDS011;23169;41.804;12.596;2023-03-01T03:27:06;2.40;;;2.20;;
37280;SDS011;23169;41.804;12.596;2023-03-01T03:29:37;4.07;;;2.25;;
37280;SDS011;23169;41.804;12.596;2023-03-01T03:32:05;2.55;;;1.75;;
37280;SDS011;23169;41.804;12.596;2023-03-01T03:34:36;2.90;;;2.10;;
37280;SDS011;23169;41.804;12.596;2023-03-01T03:37:05;3.15;;;1.73;;
37280;SDS011;23169;41.804;12.596;2023-03-01T03:39:54;2.20;;;1.83;;
37280;SDS011;23169;41.804;12.596;2023-03-01T03:42:24;3.83;;;2.45;;
37280;SDS011;23169;41.804;12.596;2023-03-01T03:44:54;4.78;;;2.45;;
37280;SDS011;23169;41.804;12.596;2023-03-01T03:47:22;4.22;;;2.50;;
37280;SDS011;23169;41.804;12.596;2023-03-01T03:49:52;1.95;;;1.80;;
37280;SDS011;23169;41.804;12.596;2023-03-01T03:52:21;2.53;;;1.70;;
37280;SDS011;23169;41.804;12.596;2023-03-01T03:54:49;2.00;;;1.80;;
37280;SDS011;23169;41.804;12.596;2023-03-01T03:57:18;1.98;;;1.80;;
37280;SDS011;23169;41.804;12.596;2023-03-01T03:59:46;3.05;;;2.05;;
37280;SDS011;23169;41.804;12.596;2023-03-01T04:02:15;4.35;;;1.98;;
37280;SDS011;23169;41.804;12.596;2023-03-01T04:04:50;2.22;;;1.70;;
37280;SDS011;23169;41.804;12.596;2023-03-01T04:07:18;2.60;;;1.90;;
37280;SDS011;23169;41.804;12.596;2023-03-01T04:10:05;2.47;;;1.98;;
37280;SDS011;23169;41.804;12.596;2023-03-01T04:12:54;2.15;;;1.95;;
37280;SDS011;23169;41.804;12.596;2023-03-01T04:15:27;2.13;;;1.92;;
37280;SDS011;23169;41.804;12.596;2023-03-01T04:17:59;3.85;;;2.08;;
37280;SDS011;23169;41.804;12.596;2023-03-01T04:20:30;3.83;;;2.05;;
37280;SDS011;23169;41.804;12.596;2023-03-01T04:23:19;3.90;;;1.88;;
37280;SDS011;23169;41.804;12.596;2023-03-01T04:25:53;5.38;;;2.17;;
37280;SDS011;23169;41.804;12.596;2023-03-01T04:28:33;3.83;;;1.65;;
37280;SDS011;23169;41.804;12.596;2023-03-01T04:31:08;2.90;;;2.05;;
37280;SDS011;23169;41.804;12.596;2023-03-01T04:33:47;2.20;;;2.03;;
37280;SDS011;23169;41.804;12.596;2023-03-01T04:38:53;2.58;;;1.83;;
37280;SDS011;23169;41.804;12.596;2023-03-01T04:41:27;1.58;;;1.35;;
37280;SDS011;23169;41.804;12.596;2023-03-01T04:43:56;3.63;;;2.15;;
37280;SDS011;23169;41.804;12.596;2023-03-01T04:46:28;1.67;;;1.55;;
37280;SDS011;23169;41.804;12.596;2023-03-01T04:48:57;2.45;;;1.60;;
37280;SDS011;23169;41.804;12.596;2023-03-01T04:51:25;1.58;;;1.48;;
37280;SDS011;23169;41.804;12.596;2023-03-01T04:53:54;4.28;;;2.08;;
37280;SDS011;23169;41.804;12.596;2023-03-01T04:56:23;3.63;;;1.30;;
37280;SDS011;23169;41.804;12.596;2023-03-01T04:58:53;1.52;;;1.30;;
37280;SDS011;23169;41.804;12.596;2023-03-01T05:01:22;1.70;;;1.45;;
37280;SDS011;23169;41.804;12.596;2023-03-01T05:03:51;4.20;;;1.67;;
37280;SDS011;23169;41.804;12.596;2023-03-01T05:06:19;3.60;;;1.35;;
37280;SDS011;23169;41.804;12.596;2023-03-01T05:08:49;1.42;;;1.33;;
37280;SDS011;23169;41.804;12.596;2023-03-01T05:11:18;1.05;;;1.05;;
37280;SDS011;23169;41.804;12.596;2023-03-01T05:13:47;2.17;;;1.10;;
37280;SDS011;23169;41.804;12.596;2023-03-01T05:16:18;2.72;;;1.30;;
37280;SDS011;23169;41.804;12.596;2023-03-01T05:18:47;0.95;;;0.95;;
37280;SDS011;23169;41.804;12.596;2023-03-01T05:21:19;1.98;;;1.15;;
37280;SDS011;23169;41.804;12.596;2023-03-01T05:23:48;1.08;;;1.05;;
37280;SDS011;23169;41.804;12.596;2023-03-01T05:26:17;4.55;;;1.23;;
37280;SDS011;23169;41.804;12.596;2023-03-01T05:28:48;3.53;;;1.80;;
37280;SDS011;23169;41.804;12.596;2023-03-01T05:31:16;2.60;;;1.98;;
37280;SDS011;23169;41.804;12.596;2023-03-01T05:33:44;3.13;;;1.65;;
37280;SDS011;23169;41.804;12.596;2023-03-01T05:36:13;4.10;;;1.80;;
37280;SDS011;23169;41.804;12.596;2023-03-01T05:38:42;3.00;;;1.80;;
37280;SDS011;23169;41.804;12.596;2023-03-01T05:41:14;2.47;;;1.92;;
37280;SDS011;23169;41.804;12.596;2023-03-01T05:43:44;2.80;;;1.90;;
37280;SDS011;23169;41.804;12.596;2023-03-01T05:46:17;3.38;;;2.05;;
37280;SDS011;23169;41.804;12.596;2023-03-01T05:48:50;2.72;;;1.85;;
37280;SDS011;23169;41.804;12.596;2023-03-01T05:51:20;2.25;;;1.85;;
37280;SDS011;23169;41.804;12.596;2023-03-01T05:53:49;1.65;;;1.55;;
37280;SDS011;23169;41.804;12.596;2023-03-01T05:56:18;1.95;;;1.75;;
37280;SDS011;23169;41.804;12.596;2023-03-01T05:58:51;1.95;;;1.63;;
37280;SDS011;23169;41.804;12.596;2023-03-01T06:01:20;3.63;;;1.80;;
37280;SDS011;23169;41.804;12.596;2023-03-01T06:03:50;3.50;;;1.70;;
37280;SDS011;23169;41.804;12.596;2023-03-01T06:06:25;2.30;;;1.63;;
37280;SDS011;23169;41.804;12.596;2023-03-01T06:09:01;3.03;;;1.65;;
37280;SDS011;23169;41.804;12.596;2023-03-01T06:11:34;2.30;;;2.10;;
37280;SDS011;23169;41.804;12.596;2023-03-01T06:14:07;2.13;;;1.70;;
37280;SDS011;23169;41.804;12.596;2023-03-01T06:16:36;2.85;;;2.08;;
37280;SDS011;23169;41.804;12.596;2023-03-01T06:19:04;2.45;;;2.20;;
37280;SDS011;23169;41.804;12.596;2023-03-01T06:21:33;2.35;;;1.95;;
37280;SDS011;23169;41.804;12.596;2023-03-01T06:24:01;4.15;;;2.00;;
37280;SDS011;23169;41.804;12.596;2023-03-01T06:26:29;4.32;;;1.33;;
37280;SDS011;23169;41.804;12.596;2023-03-01T06:28:58;2.78;;;1.23;;
37280;SDS011;23169;41.804;12.596;2023-03-01T06:31:26;1.38;;;1.27;;
37280;SDS011;23169;41.804;12.596;2023-03-01T06:33:56;1.58;;;1.42;;
37280;SDS011;23169;41.804;12.596;2023-03-01T06:36:24;2.08;;;1.70;;
37280;SDS011;23169;41.804;12.596;2023-03-01T06:38:53;3.55;;;1.85;;
37280;SDS011;23169;41.804;12.596;2023-03-01T06:41:21;2.20;;;1.73;;
37280;SDS011;23169;41.804;12.596;2023-03-01T06:43:49;2.97;;;1.50;;
37280;SDS011;23169;41.804;12.596;2023-03-01T06:46:18;4.22;;;2.17;;
37280;SDS011;23169;41.804;12.596;2023-03-01T06:48:47;3.10;;;2.05;;
37280;SDS011;23169;41.804;12.596;2023-03-01T06:51:15;4.97;;;2.17;;
37280;SDS011;23169;41.804;12.596;2023-03-01T06:53:45;3.10;;;2.22;;
37280;SDS011;23169;41.804;12.596;2023-03-01T06:56:13;3.80;;;2.55;;
37280;SDS011;23169;41.804;12.596;2023-03-01T06:58:43;6.25;;;2.45;;
37280;SDS011;23169;41.804;12.596;2023-03-01T07:01:13;4.75;;;2.17;;
37280;SDS011;23169;41.804;12.596;2023-03-01T07:03:42;2.88;;;2.05;;
37280;SDS011;23169;41.804;12.596;2023-03-01T07:06:11;7.38;;;2.13;;
37280;SDS011;23169;41.804;12.596;2023-03-01T07:08:40;5.82;;;2.53;;
37280;SDS011;23169;41.804;12.596;2023-03-01T07:11:08;4.82;;;2.42;;
37280;SDS011;23169;41.804;12.596;2023-03-01T07:13:37;5.75;;;1.95;;
37280;SDS011;23169;41.804;12.596;2023-03-01T07:16:07;4.60;;;2.17;;
37280;SDS011;23169;41.804;12.596;2023-03-01T07:18:37;3.72;;;2.20;;
37280;SDS011;23169;41.804;12.596;2023-03-01T07:21:09;2.00;;;1.65;;
37280;SDS011;23169;41.804;12.596;2023-03-01T07:23:40;5.22;;;1.58;;
37280;SDS011;23169;41.804;12.596;2023-03-01T07:26:08;2.80;;;1.45;;
37280;SDS011;23169;41.804;12.596;2023-03-01T07:28:44;1.98;;;1.20;;
37280;SDS011;23169;41.804;12.596;2023-03-01T07:31:13;1.45;;;1.17;;
37280;SDS011;23169;41.804;12.596;2023-03-01T07:33:41;2.47;;;1.33;;
37280;SDS011;23169;41.804;12.596;2023-03-01T07:36:10;1.20;;;1.10;;
37280;SDS011;23169;41.804;12.596;2023-03-01T07:38:38;2.38;;;1.35;;
37280;SDS011;23169;41.804;12.596;2023-03-01T07:41:07;0.98;;;0.98;;
37280;SDS011;23169;41.804;12.596;2023-03-01T07:43:36;2.55;;;1.10;;
37280;SDS011;23169;41.804;12.596;2023-03-01T07:46:04;3.05;;;1.00;;
37280;SDS011;23169;41.804;12.596;2023-03-01T07:48:35;1.60;;;0.95;;
37280;SDS011;23169;41.804;12.596;2023-03-01T07:51:04;2.78;;;0.98;;
37280;SDS011;23169;41.804;12.596;2023-03-01T07:53:33;1.15;;;1.05;;
37280;SDS011;23169;41.804;12.596;2023-03-01T07:56:11;1.63;;;1.00;;
37280;SDS011;23169;41.804;12.596;2023-03-01T07:58:42;4.88;;;1.30;;
37280;SDS011;23169;41.804;12.596;2023-03-01T08:01:12;2.83;;;1.05;;
37280;SDS011;23169;41.804;12.596;2023-03-01T08:03:42;1.40;;;0.95;;
37280;SDS011;23169;41.804;12.596;2023-03-01T08:06:14;1.88;;;1.00;;
37280;SDS011;23169;41.804;12.596;2023-03-01T08:08:44;2.33;;;0.90;;
37280;SDS011;23169;41.804;12.596;2023-03-01T08:11:14;2.00;;;0.95;;
37280;SDS011;23169;41.804;12.596;2023-03-01T08:13:43;5.45;;;1.52;;
37280;SDS011;23169;41.804;12.596;2023-03-01T08:16:12;1.90;;;1.00;;
37280;SDS011;23169;41.804;12.596;2023-03-01T08:18:42;2.50;;;1.20;;
37280;SDS011;23169;41.804;12.596;2023-03-01T08:21:11;2.67;;;1.20;;
37280;SDS011;23169;41.804;12.596;2023-03-01T08:23:43;5.35;;;1.48;;
37280;SDS011;23169;41.804;12.596;2023-03-01T08:26:13;2.85;;;1.10;;
37280;SDS011;23169;41.804;12.596;2023-03-01T08:28:44;1.20;;;1.10;;
37280;SDS011;23169;41.804;12.596;2023-03-01T08:31:14;2.03;;;1.00;;
37280;SDS011;23169;41.804;12.596;2023-03-01T08:33:42;3.22;;;1.05;;
37280;SDS011;23169;41.804;12.596;2023-03-01T08:36:11;4.28;;;1.40;;
37280;SDS011;23169;41.804;12.596;2023-03-01T08:38:40;3.28;;;1.05;;
37280;SDS011;23169;41.804;12.596;2023-03-01T08:41:08;4.70;;;1.27;;
37280;SDS011;23169;41.804;12.596;2023-03-01T08:43:38;3.92;;;1.45;;
37280;SDS011;23169;41.804;12.596;2023-03-01T08:46:06;6.20;;;1.63;;
37280;SDS011;23169;41.804;12.596;2023-03-01T08:48:37;3.33;;;1.45;;
37280;SDS011;23169;41.804;12.596;2023-03-01T08:51:06;1.60;;;1.10;;
37280;SDS011;23169;41.804;12.596;2023-03-01T08:53:36;1.27;;;1.10;;
37280;SDS011;23169;41.804;12.596;2023-03-01T08:56:05;1.95;;;1.23;;
37280;SDS011;23169;41.804;12.596;2023-03-01T08:58:34;1.40;;;1.20;;
37280;SDS011;23169;41.804;12.596;2023-03-01T09:01:09;2.17;;;1.10;;
37280;SDS011;23169;41.804;12.596;2023-03-01T09:03:39;3.78;;;1.40;;
37280;SDS011;23169;41.804;12.596;2023-03-01T09:06:08;3.72;;;1.30;;
37280;SDS011;23169;41.804;12.596;2023-03-01T09:08:39;5.97;;;1.20;;
37280;SDS011;23169;41.804;12.596;2023-03-01T09:11:09;1.67;;;0.80;;
37280;SDS011;23169;41.804;12.596;2023-03-01T09:13:39;1.63;;;1.10;;
37280;SDS011;23169;41.804;12.596;2023-03-01T09:16:07;4.32;;;1.55;;
37280;SDS011;23169;41.804;12.596;2023-03-01T09:18:36;3.80;;;1.10;;
37280;SDS011;23169;41.804;12.596;2023-03-01T09:21:06;4.68;;;1.70;;
37280;SDS011;23169;41.804;12.596;2023-03-01T09:23:40;5.85;;;1.58;;
37280;SDS011;23169;41.804;12.596;2023-03-01T09:26:14;5.45;;;1.65;;
37280;SDS011;23169;41.804;12.596;2023-03-01T09:28:45;4.93;;;1.70;;
37280;SDS011;23169;41.804;12.596;2023-03-01T09:31:15;2.22;;;1.38;;
37280;SDS011;23169;41.804;12.596;2023-03-01T09:33:47;4.00;;;1.30;;
37280;SDS011;23169;41.804;12.596;2023-03-01T09:36:17;4.25;;;1.40;;
37280;SDS011;23169;41.804;12.596;2023-03-01T09:38:48;3.22;;;1.15;;
37280;SDS011;23169;41.804;12.596;2023-03-01T09:43:51;1.92;;;1.15;;
37280;SDS011;23169;41.804;12.596;2023-03-01T09:46:24;3.50;;;1.17;;
37280;SDS011;23169;41.804;12.596;2023-03-01T09:53:57;3.70;;;1.30;;
37280;SDS011;23169;41.804;12.596;2023-03-01T09:56:46;4.03;;;1.30;;
37280;SDS011;23169;41.804;12.596;2023-03-01T09:59:29;3.53;;;1.10;;
37280;SDS011;23169;41.804;12.596;2023-03-01T10:02:30;2.58;;;1.30;;
37280;SDS011;23169;41.804;12.596;2023-03-01T10:10:37;1.63;;;1.33;;
37280;SDS011;23169;41.804;12.596;2023-03-01T10:16:26;3.30;;;1.08;;
37280;SDS011;23169;41.804;12.596;2023-03-01T10:19:39;3.83;;;1.00;;
37280;SDS011;23169;41.804;12.596;2023-03-01T10:24:57;4.53;;;1.17;;
37280;SDS011;23169;41.804;12.596;2023-03-01T10:27:35;2.15;;;1.20;;
37280;SDS011;23169;41.804;12.596;2023-03-01T10:30:16;1.40;;;0.90;;
37280;SDS011;23169;41.804;12.596;2023-03-01T10:33:22;4.13;;;1.45;;
37280;SDS011;23169;41.804;12.596;2023-03-01T10:35:53;6.70;;;1.67;;
37280;SDS011;23169;41.804;12.596;2023-03-01T10:38:22;3.97;;;1.35;;
37280;SDS011;23169;41.804;12.596;2023-03-01T10:43:21;3.15;;;1.08;;
37280;SDS011;23169;41.804;12.596;2023-03-01T10:45:51;4.35;;;1.15;;
37280;SDS011;23169;41.804;12.596;2023-03-01T10:56:01;5.35;;;1.75;;
37280;SDS011;23169;41.804;12.596;2023-03-01T10:58:38;5.72;;;1.48;;
37280;SDS011;23169;41.804;12.596;2023-03-01T11:04:08;4.07;;;1.50;;
37280;SDS011;23169;41.804;12.596;2023-03-01T11:06:38;3.53;;;1.23;;
37280;SDS011;23169;41.804;12.596;2023-03-01T11:09:14;6.57;;;1.27;;
37280;SDS011;23169;41.804;12.596;2023-03-01T11:11:46;4.30;;;1.20;;
37280;SDS011;23169;41.804;12.596;2023-03-01T11:14:27;5.80;;;1.02;;
37280;SDS011;23169;41.804;12.596;2023-03-01T11:17:04;4.28;;;1.17;;
37280;SDS011;23169;41.804;12.596;2023-03-01T11:19:39;3.35;;;1.20;;
37280;SDS011;23169;41.804;12.596;2023-03-01T11:24:49;0.80;;;0.80;;
37280;SDS011;23169;41.804;12.596;2023-03-01T11:27:23;6.90;;;1.25;;
37280;SDS011;23169;41.804;12.596;2023-03-01T11:29:58;6.22;;;1.20;;
37280;SDS011;23169;41.804;12.596;2023-03-01T11:35:57;4.60;;;1.50;;
37280;SDS011;23169;41.804;12.596;2023-03-01T11:38:32;6.32;;;1.30;;
37280;SDS011;23169;41.804;12.596;2023-03-01T11:51:42;2.85;;;1.10;;
37280;SDS011;23169;41.804;12.596;2023-03-01T11:54:32;6.55;;;1.50;;
37280;SDS011;23169;41.804;12.596;2023-03-01T12:00:16;1.95;;;1.42;;
37280;SDS011;23169;41.804;12.596;2023-03-01T12:15:07;3.78;;;1.27;;
37280;SDS011;23169;41.804;12.596;2023-03-01T12:26:32;3.37;;;1.50;;
37280;SDS011;23169;41.804;12.596;2023-03-01T12:29:31;3.63;;;1.20;;
37280;SDS011;23169;41.804;12.596;2023-03-01T12:32:15;4.32;;;1.58;;
37280;SDS011;23169;41.804;12.596;2023-03-01T12:48:36;6.68;;;1.15;;
37280;SDS011;23169;41.804;12.596;2023-03-01T12:51:20;1.23;;;0.80;;
37280;SDS011;23169;41.804;12.596;2023-03-01T12:53:53;1.98;;;0.98;;
37280;SDS011;23169;41.804;12.596;2023-03-01T12:56:27;1.33;;;1.00;;
37280;SDS011;23169;41.804;12.596;2023-03-01T12:59:00;3.00;;;1.08;;
37280;SDS011;23169;41.804;12.596;2023-03-01T13:07:19;1.40;;;0.85;;
37280;SDS011;23169;41.804;12.596;2023-03-01T13:13:01;2.80;;;1.33;;
37280;SDS011;23169;41.804;12.596;2023-03-01T13:15:35;2.83;;;1.38;;
37280;SDS011;23169;41.804;12.596;2023-03-01T13:18:47;4.43;;;1.75;;
37280;SDS011;23169;41.804;12.596;2023-03-01T13:20:59;3.85;;;1.52;;
37280;SDS011;23169;41.804;12.596;2023-03-01T13:23:31;6.85;;;1.80;;
37280;SDS011;23169;41.804;12.596;2023-03-01T13:33:44;6.20;;;1.40;;
37280;SDS011;23169;41.804;12.596;2023-03-01T13:38:58;5.40;;;1.83;;
37280;SDS011;23169;41.804;12.596;2023-03-01T13:47:14;3.47;;;1.40;;
37280;SDS011;23169;41.804;12.596;2023-03-01T13:55:00;4.28;;;1.80;;
37280;SDS011;23169;41.804;12.596;2023-03-01T13:57:34;5.88;;;1.85;;
37280;SDS011;23169;41.804;12.596;2023-03-01T14:00:06;2.13;;;1.27;;
37280;SDS011;23169;41.804;12.596;2023-03-01T14:03:03;5.45;;;1.60;;
37280;SDS011;23169;41.804;12.596;2023-03-01T14:05:33;7.70;;;1.80;;
37280;SDS011;23169;41.804;12.596;2023-03-01T14:08:04;7.25;;;2.10;;
37280;SDS011;23169;41.804;12.596;2023-03-01T14:11:13;9.23;;;2.40;;
37280;SDS011;23169;41.804;12.596;2023-03-01T14:14:02;6.05;;;1.80;;
37280;SDS011;23169;41.804;12.596;2023-03-01T14:16:48;6.50;;;1.77;;
37280;SDS011;23169;41.804;12.596;2023-03-01T14:19:26;1.70;;;1.40;;
37280;SDS011;23169;41.804;12.596;2023-03-01T14:22:11;3.50;;;1.90;;
37280;SDS011;23169;41.804;12.596;2023-03-01T14:24:57;5.93;;;2.28;;
37280;SDS011;23169;41.804;12.596;2023-03-01T14:27:43;6.43;;;1.73;;
37280;SDS011;23169;41.804;12.596;2023-03-01T14:30:17;5.13;;;1.83;;
37280;SDS011;23169;41.804;12.596;2023-03-01T14:32:54;2.90;;;1.67;;
37280;SDS011;23169;41.804;12.596;2023-03-01T14:35:28;6.28;;;1.85;;
37280;SDS011;23169;41.804;12.596;2023-03-01T14:38:02;3.42;;;1.83;;
37280;SDS011;23169;41.804;12.596;2023-03-01T14:40:35;4.85;;;2.30;;
37280;SDS011;23169;41.804;12.596;2023-03-01T14:43:13;5.57;;;2.28;;
37280;SDS011;23169;41.804;12.596;2023-03-01T14:45:48;8.57;;;2.25;;
37280;SDS011;23169;41.804;12.596;2023-03-01T14:48:18;6.13;;;2.20;;
37280;SDS011;23169;41.804;12.596;2023-03-01T14:50:47;6.50;;;2.63;;
37280;SDS011;23169;41.804;12.596;2023-03-01T14:53:20;3.95;;;2.40;;
37280;SDS011;23169;41.804;12.596;2023-03-01T14:55:53;7.13;;;2.47;;
37280;SDS011;23169;41.804;12.596;2023-03-01T14:58:25;4.97;;;2.17;;
37280;SDS011;23169;41.804;12.596;2023-03-01T15:01:00;7.65;;;2.30;;
37280;SDS011;23169;41.804;12.596;2023-03-01T15:03:34;4.75;;;2.30;;
37280;SDS011;23169;41.804;12.596;2023-03-01T15:08:42;10.05;;;2.97;;
37280;SDS011;23169;41.804;12.596;2023-03-01T15:11:30;7.07;;;2.70;;
37280;SDS011;23169;41.804;12.596;2023-03-01T15:13:59;3.83;;;1.98;;
37280;SDS011;23169;41.804;12.596;2023-03-01T15:16:29;3.55;;;2.53;;
37280;SDS011;23169;41.804;12.596;2023-03-01T15:19:00;5.72;;;2.88;;
37280;SDS011;23169;41.804;12.596;2023-03-01T15:21:33;5.55;;;3.08;;
37280;SDS011;23169;41.804;12.596;2023-03-01T15:24:05;5.60;;;3.08;;
37280;SDS011;23169;41.804;12.596;2023-03-01T15:27:03;3.58;;;2.40;;
37280;SDS011;23169;41.804;12.596;2023-03-01T15:29:35;8.00;;;3.42;;
37280;SDS011;23169;41.804;12.596;2023-03-01T15:41:03;4.82;;;2.42;;
37280;SDS011;23169;41.804;12.596;2023-03-01T15:43:53;7.90;;;2.90;;
37280;SDS011;23169;41.804;12.596;2023-03-01T15:46:31;8.15;;;3.58;;
37280;SDS011;23169;41.804;12.596;2023-03-01T15:49:02;10.30;;;3.25;;
37280;SDS011;23169;41.804;12.596;2023-03-01T15:51:55;7.60;;;2.50;;
37280;SDS011;23169;41.804;12.596;2023-03-01T15:54:24;9.05;;;2.85;;
37280;SDS011;23169;41.804;12.596;2023-03-01T15:56:54;9.68;;;3.10;;
37280;SDS011;23169;41.804;12.596;2023-03-01T15:59:23;6.25;;;2.60;;
37280;SDS011;23169;41.804;12.596;2023-03-01T16:01:51;6.60;;;2.25;;
37280;SDS011;23169;41.804;12.596;2023-03-01T16:04:20;8.07;;;2.63;;
37280;SDS011;23169;41.804;12.596;2023-03-01T16:06:50;4.65;;;2.22;;
37280;SDS011;23169;41.804;12.596;2023-03-01T16:09:24;6.80;;;2.00;;
37280;SDS011;23169;41.804;12.596;2023-03-01T16:11:53;10.63;;;2.55;;
37280;SDS011;23169;41.804;12.596;2023-03-01T16:14:22;11.52;;;2.47;;
37280;SDS011;23169;41.804;12.596;2023-03-01T16:16:52;9.27;;;2.63;;
37280;SDS011;23169;41.804;12.596;2023-03-01T16:19:20;7.65;;;2.47;;
37280;SDS011;23169;41.804;12.596;2023-03-01T16:21:48;5.55;;;1.85;;
37280;SDS011;23169;41.804;12.596;2023-03-01T16:24:19;8.25;;;2.38;;
37280;SDS011;23169;41.804;12.596;2023-03-01T16:26:47;4.35;;;2.45;;
37280;SDS011;23169;41.804;12.596;2023-03-01T16:29:16;4.35;;;2.35;;
37280;SDS011;23169;41.804;12.596;2023-03-01T16:31:44;8.40;;;2.88;;
37280;SDS011;23169;41.804;12.596;2023-03-01T16:34:12;11.02;;;3.08;;
37280;SDS011;23169;41.804;12.596;2023-03-01T16:36:42;8.27;;;3.38;;
37280;SDS011;23169;41.804;12.596;2023-03-01T16:39:10;5.55;;;3.13;;
37280;SDS011;23169;41.804;12.596;2023-03-01T16:41:39;14.00;;;3.25;;
37280;SDS011;23169;41.804;12.596;2023-03-01T16:44:07;9.35;;;2.30;;
37280;SDS011;23169;41.804;12.596;2023-03-01T16:46:35;7.10;;;2.55;;
37280;SDS011;23169;41.804;12.596;2023-03-01T16:49:04;8.73;;;2.53;;
37280;SDS011;23169;41.804;12.596;2023-03-01T16:51:32;5.18;;;2.33;;
37280;SDS011;23169;41.804;12.596;2023-03-01T16:54:02;7.50;;;2.42;;
37280;SDS011;23169;41.804;12.596;2023-03-01T16:56:33;7.35;;;2.33;;
37280;SDS011;23169;41.804;12.596;2023-03-01T16:59:05;6.82;;;2.50;;
37280;SDS011;23169;41.804;12.596;2023-03-01T17:01:34;6.70;;;2.65;;
37280;SDS011;23169;41.804;12.596;2023-03-01T17:04:10;6.65;;;2.20;;
37280;SDS011;23169;41.804;12.596;2023-03-01T17:06:40;10.43;;;2.33;;
37280;SDS011;23169;41.804;12.596;2023-03-01T17:09:09;10.30;;;2.80;;
37280;SDS011;23169;41.804;12.596;2023-03-01T17:11:37;10.07;;;2.92;;
37280;SDS011;23169;41.804;12.596;2023-03-01T17:14:06;5.88;;;3.05;;
37280;SDS011;23169;41.804;12.596;2023-03-01T17:16:36;10.00;;;2.88;;
37280;SDS011;23169;41.804;12.596;2023-03-01T17:19:04;7.95;;;3.22;;
37280;SDS011;23169;41.804;12.596;2023-03-01T17:21:32;4.35;;;2.83;;
37280;SDS011;23169;41.804;12.596;2023-03-01T17:24:01;10.25;;;3.63;;
37280;SDS011;23169;41.804;12.596;2023-03-01T17:26:33;14.10;;;4.95;;
37280;SDS011;23169;41.804;12.596;2023-03-01T17:29:01;12.05;;;4.72;;
37280;SDS011;23169;41.804;12.596;2023-03-01T17:31:32;12.50;;;4.70;;
37280;SDS011;23169;41.804;12.596;2023-03-01T17:34:01;13.77;;;4.80;;
37280;SDS011;23169;41.804;12.596;2023-03-01T17:36:31;10.13;;;4.63;;
37280;SDS011;23169;41.804;12.596;2023-03-01T17:39:03;12.52;;;4.60;;
37280;SDS011;23169;41.804;12.596;2023-03-01T17:41:31;13.45;;;5.18;;